Time;durP1;ratioP1;P1;durP2;ratioP2;P2;SDS_P1;SDS_P2;PMS_P1;PMS_P2;Temp;Humidity;BMP_temperature;BMP_pressure;BME280_temperature;BME280_humidity;BME280_pressure;Samples;Min_cycle;Max_cycle;Signal;HPM_P1;HPM_P2
2021/07/27 00:03:02;;;;;;;4.91;2.30;;;;;;;16.23;92.41;99110.81;2017145;77;25640;-76
2021/07/27 00:06:05;;;;;;;6.69;2.67;;;;;;;16.24;92.31;99116.00;2017906;80;20171;-76
2021/07/27 00:09:08;;;;;;;5.36;2.80;;;;;;;16.23;92.36;99109.06;2018076;80;20183;-77
2021/07/27 00:12:13;;;;;;;7.13;2.83;;;;;;;16.22;92.47;99112.59;2017849;80;20187;-76
2021/07/27 00:15:15;;;;;;;6.78;2.85;;;;;;;16.22;92.41;99114.34;2017219;80;20226;-76
2021/07/27 00:18:18;;;;;;;6.40;2.49;;;;;;;16.20;92.35;99127.50;2016614;77;21350;-76
2021/07/27 00:21:21;;;;;;;7.51;3.22;;;;;;;16.21;92.36;99117.88;2016841;80;20272;-76
2021/07/27 00:24:26;;;;;;;6.69;2.69;;;;;;;16.19;92.59;99117.94;2017751;80;20203;-76
2021/07/27 00:27:29;;;;;;;6.57;2.92;;;;;;;16.21;92.64;99118.72;2017372;80;20607;-76
2021/07/27 00:30:32;;;;;;;6.13;2.74;;;;;;;16.22;92.91;99115.22;2016706;77;20863;-76
2021/07/27 00:33:35;;;;;;;5.70;3.10;;;;;;;16.22;93.23;99117.81;2013793;80;20201;-76
2021/07/27 00:36:38;;;;;;;7.46;3.20;;;;;;;16.22;93.28;99114.34;2017210;80;20203;-76
2021/07/27 00:39:40;;;;;;;7.11;2.90;;;;;;;16.25;93.61;99122.97;2017490;80;20719;-76
2021/07/27 00:42:43;;;;;;;5.04;2.94;;;;;;;16.27;93.78;99121.16;2017603;80;20187;-76
2021/07/27 00:45:46;;;;;;;5.68;3.39;;;;;;;16.30;93.95;99118.44;2018141;78;20208;-76
2021/07/27 00:48:48;;;;;;;8.20;3.22;;;;;;;16.32;93.99;99129.72;2023403;80;20262;-76
2021/07/27 00:51:51;;;;;;;3.90;3.00;;;;;;;16.36;94.13;99121.78;2023196;80;20703;-76
2021/07/27 00:54:54;;;;;;;6.05;2.96;;;;;;;16.40;94.34;99123.38;2022550;80;20238;-76
2021/07/27 00:57:56;;;;;;;5.20;2.91;;;;;;;16.41;94.28;99125.97;2022770;80;20171;-75
2021/07/27 01:00:59;;;;;;;4.51;3.01;;;;;;;16.42;94.28;99127.66;2019765;77;21135;-76
2021/07/27 01:04:02;;;;;;;4.25;3.08;;;;;;;16.39;94.21;99127.78;2018453;80;20187;-76
2021/07/27 01:07:05;;;;;;;6.81;3.28;;;;;;;16.39;94.44;99124.28;2017581;80;20708;-77
2021/07/27 01:10:09;;;;;;;5.34;2.75;;;;;;;16.41;94.50;99119.84;2019111;80;20318;-76
2021/07/27 01:13:12;;;;;;;5.31;3.24;;;;;;;16.46;94.31;99123.19;2017398;80;20196;-76
2021/07/27 01:16:15;;;;;;;3.94;3.28;;;;;;;16.48;94.19;99122.22;2017027;80;20681;-76
2021/07/27 01:39:38;;;;;;;3.91;2.66;;;;;;;16.53;93.58;99125.56;2023138;80;20234;-75
2021/07/27 01:42:40;;;;;;;5.13;2.75;;;;;;;16.51;93.76;99119.50;2023607;80;20191;-76
2021/07/27 01:45:43;;;;;;;3.34;2.44;;;;;;;16.51;93.67;99116.88;2021272;77;22051;-76
2021/07/27 01:48:45;;;;;;;5.20;3.08;;;;;;;16.52;93.55;99109.91;2017638;80;20273;-75
2021/07/27 01:51:48;;;;;;;9.32;2.96;;;;;;;16.53;93.51;99111.59;2017727;80;20171;-76
2021/07/27 01:54:53;;;;;;;5.51;2.69;;;;;;;16.53;93.43;99109.00;2018189;80;20253;-76
2021/07/27 01:57:56;;;;;;;7.11;3.22;;;;;;;16.47;93.51;99112.66;2017728;80;20184;-76
2021/07/27 02:00:59;;;;;;;4.90;3.03;;;;;;;16.47;93.66;99107.41;2019129;77;21235;-76
2021/07/27 02:04:03;;;;;;;10.09;3.10;;;;;;;16.48;93.53;99097.78;2024398;80;20905;-76
2021/07/27 02:07:06;;;;;;;3.78;3.09;;;;;;;16.46;93.72;99100.44;2024846;80;20203;-75
2021/07/27 02:10:13;;;;;;;5.19;3.03;;;;;;;16.47;93.76;99099.53;2023673;80;20171;-75
2021/07/27 02:13:26;;;;;;;5.86;2.80;;;;;;;16.48;93.71;99098.63;2025202;80;20206;-75
2021/07/27 02:16:29;;;;;;;3.69;3.16;;;;;;;16.50;93.60;99095.94;2020800;77;28759;-75
2021/07/27 02:19:33;;;;;;;7.19;3.00;;;;;;;16.48;93.45;99092.53;2019724;80;20183;-76
2021/07/27 02:22:37;;;;;;;4.06;2.90;;;;;;;16.46;93.27;99095.22;2019386;80;20737;-75
2021/07/27 02:25:39;;;;;;;4.06;3.08;;;;;;;16.45;93.10;99090.03;2019492;80;20176;-76
2021/07/27 02:28:42;;;;;;;7.46;3.45;;;;;;;16.42;92.94;99088.34;2019874;80;20290;-76
2021/07/27 02:31:44;;;;;;;5.25;2.85;;;;;;;16.36;92.78;99096.44;2021556;77;21048;-76
2021/07/27 02:34:47;;;;;;;6.39;3.10;;;;;;;16.31;92.82;99098.31;2025246;80;20193;-76
2021/07/27 02:37:49;;;;;;;8.38;3.05;;;;;;;16.27;92.70;99096.72;2024411;80;20179;-76
2021/07/27 02:40:52;;;;;;;4.24;3.05;;;;;;;16.25;92.57;99102.00;2024735;80;20815;-76
2021/07/27 02:43:54;;;;;;;6.21;3.34;;;;;;;16.18;92.28;99103.13;2024383;80;20612;-76
2021/07/27 02:46:57;;;;;;;3.88;2.84;;;;;;;16.15;92.21;99090.09;2020102;78;20792;-76
2021/07/27 02:50:00;;;;;;;7.32;2.99;;;;;;;16.11;91.98;99093.72;2020213;80;20784;-76
2021/07/27 02:53:03;;;;;;;3.55;2.64;;;;;;;16.07;91.71;99097.34;2019434;80;20225;-76
2021/07/27 02:56:05;;;;;;;3.66;2.79;;;;;;;16.00;91.75;99101.94;2019206;80;20274;-76
2021/07/27 02:59:08;;;;;;;10.50;3.11;;;;;;;15.95;92.00;99098.56;2019919;80;20864;-76
2021/07/27 03:02:11;;;;;;;5.16;3.47;;;;;;;15.96;92.17;99100.28;2022214;77;21033;-76
2021/07/27 03:05:15;;;;;;;7.41;3.19;;;;;;;15.93;92.17;99097.78;2023460;80;20191;-76
2021/07/27 03:08:19;;;;;;;7.78;2.85;;;;;;;15.90;92.58;99097.88;2023759;80;20179;-75
2021/07/27 03:11:25;;;;;;;5.05;3.39;;;;;;;15.91;92.71;99101.34;2023379;80;20200;-76
2021/07/27 03:14:29;;;;;;;7.43;3.13;;;;;;;15.86;92.76;99096.25;2023102;80;21051;-76
2021/07/27 03:17:31;;;;;;;4.34;3.08;;;;;;;15.84;92.76;99100.69;2018307;77;23158;-75
2021/07/27 03:20:34;;;;;;;6.10;3.49;;;;;;;15.81;92.44;99106.03;2017968;80;20211;-76
2021/07/27 03:23:37;;;;;;;4.26;3.16;;;;;;;15.71;92.44;99108.03;2018270;80;20168;-76
2021/07/27 03:26:40;;;;;;;6.05;3.38;;;;;;;15.69;92.85;99098.53;2017918;80;20183;-76
2021/07/27 03:29:42;;;;;;;7.03;3.08;;;;;;;15.71;93.25;99102.81;2017550;80;20382;-76
2021/07/27 03:32:46;;;;;;;10.23;3.44;;;;;;;15.75;93.21;99100.09;2022190;77;20251;-76
2021/07/27 03:35:49;;;;;;;9.86;3.40;;;;;;;15.76;93.16;99100.03;2013232;80;20272;-76
2021/07/27 03:38:51;;;;;;;7.09;3.25;;;;;;;15.74;93.09;99106.22;2012772;80;20212;-76
2021/07/27 03:41:54;;;;;;;7.40;3.14;;;;;;;15.65;93.18;99105.63;2016156;80;20426;-76
2021/07/27 03:44:58;;;;;;;4.32;3.13;;;;;;;15.64;93.31;99095.19;2012907;80;20202;-75
2021/07/27 03:48:01;;;;;;;5.34;2.78;;;;;;;15.66;93.20;99091.63;2006891;80;21807;-75
2021/07/27 03:51:03;;;;;;;4.91;3.14;;;;;;;15.65;93.00;99092.53;2007400;80;20941;-76
2021/07/27 03:54:07;;;;;;;6.24;3.05;;;;;;;15.69;92.80;99093.28;2007691;80;20680;-76
2021/07/27 03:57:09;;;;;;;9.45;2.91;;;;;;;15.63;92.72;99077.78;2007304;80;20161;-76
2021/07/27 04:00:13;;;;;;;6.21;3.16;;;;;;;15.62;92.64;99073.44;2010145;80;20423;-76
2021/07/27 04:03:15;;;;;;;6.24;3.65;;;;;;;15.58;92.54;99069.16;2007436;80;20205;-76
2021/07/27 04:06:18;;;;;;;3.59;2.85;;;;;;;15.56;92.72;99071.81;2007272;80;20241;-76
2021/07/27 04:09:22;;;;;;;5.75;2.86;;;;;;;15.55;92.71;99074.47;2007809;80;20181;-76
2021/07/27 04:12:25;;;;;;;7.29;3.00;;;;;;;15.56;92.79;99066.59;2007822;80;20176;-75
2021/07/27 04:15:27;;;;;;;3.88;2.91;;;;;;;15.58;92.83;99071.78;2007716;80;20843;-75
2021/07/27 04:18:30;;;;;;;6.01;3.21;;;;;;;15.59;92.92;99074.38;2016045;80;20351;-76
2021/07/27 04:21:34;;;;;;;5.39;3.25;;;;;;;15.59;92.89;99079.59;2012422;80;20176;-76
2021/07/27 04:24:36;;;;;;;8.56;3.21;;;;;;;15.62;92.91;99082.16;2012543;80;20206;-76
2021/07/27 04:27:39;;;;;;;5.71;2.84;;;;;;;15.64;93.17;99074.25;2012617;80;20262;-76
2021/07/27 04:30:42;;;;;;;5.89;3.30;;;;;;;15.74;93.01;99073.06;2011111;77;21344;-76
2021/07/27 04:33:45;;;;;;;3.78;2.65;;;;;;;15.79;93.09;99075.53;2011226;80;20204;-76
2021/07/27 04:36:53;;;;;;;4.07;3.20;;;;;;;15.83;93.03;99066.69;2017746;80;20175;-76
2021/07/27 04:39:56;;;;;;;4.35;3.24;;;;;;;15.86;93.13;99067.47;2017638;80;20184;-76
2021/07/27 04:42:59;;;;;;;5.43;2.71;;;;;;;15.91;93.10;99070.78;2018177;80;20215;-76
2021/07/27 04:46:03;;;;;;;9.73;3.51;;;;;;;15.96;93.08;99074.09;2018752;78;29580;-76
2021/07/27 04:49:06;;;;;;;4.32;2.99;;;;;;;16.01;93.07;99074.84;2022473;80;20584;-76
2021/07/27 04:52:09;;;;;;;8.44;3.14;;;;;;;16.09;93.21;99063.25;2018966;80;20197;-76
2021/07/27 04:55:12;;;;;;;5.10;3.46;;;;;;;16.21;93.10;99055.00;2022980;80;20202;-77
2021/07/27 04:58:14;;;;;;;7.15;3.79;;;;;;;16.36;92.87;99061.50;2023033;80;20197;-76
2021/07/27 05:01:17;;;;;;;3.78;2.64;;;;;;;16.41;92.60;99060.44;2019874;77;20192;-76
2021/07/27 05:04:21;;;;;;;5.26;3.51;;;;;;;16.42;92.34;99063.91;2017136;80;20634;-76
2021/07/27 05:07:24;;;;;;;7.63;3.96;;;;;;;16.46;92.35;99062.91;2017660;80;20223;-76
2021/07/27 05:10:27;;;;;;;5.36;3.14;;;;;;;16.52;92.17;99058.31;2017892;80;20672;-76
2021/07/27 05:13:30;;;;;;;4.78;3.34;;;;;;;16.56;92.07;99059.94;2017676;80;21115;-76
2021/07/27 05:16:32;;;;;;;7.29;2.96;;;;;;;16.69;91.50;99062.16;2019256;78;22780;-77
2021/07/27 05:19:35;;;;;;;3.70;3.40;;;;;;;16.79;nan;99059.16;2022849;80;20220;-76
2021/07/27 05:22:38;;;;;;;6.82;3.49;;;;;;;16.79;91.10;99058.31;2025406;80;20292;-79
2021/07/27 05:25:43;;;;;;;6.96;3.67;;;;;;;16.84;90.98;99061.63;2023581;80;20579;-79
2021/07/27 05:28:45;;;;;;;6.04;4.61;;;;;;;16.92;90.73;99067.47;2023959;80;20175;-79
2021/07/27 05:31:48;;;;;;;5.70;3.47;;;;;;;17.03;90.38;99061.81;2020541;77;22774;-79
2021/07/27 05:34:51;;;;;;;4.07;3.47;;;;;;;17.26;90.00;99058.38;2022625;80;20289;-79
2021/07/27 05:37:54;;;;;;;4.99;3.22;;;;;;;17.46;89.59;99061.97;2018570;80;20771;-79
2021/07/27 05:40:56;;;;;;;4.91;3.51;;;;;;;17.58;89.41;99065.03;2018020;80;20301;-79
2021/07/27 05:43:59;;;;;;;3.70;3.38;;;;;;;17.57;89.64;99060.69;2018420;80;20735;-78
2021/07/27 05:47:02;;;;;;;4.00;3.54;;;;;;;17.62;89.61;99057.00;2023412;77;20932;-72
2021/07/27 05:50:09;;;;;;;5.16;3.88;;;;;;;17.70;89.33;99054.94;2025404;80;20167;-80
2021/07/27 05:53:11;;;;;;;5.13;3.84;;;;;;;17.83;89.14;99055.34;2028047;80;20610;-78
2021/07/27 05:56:14;;;;;;;7.22;3.65;;;;;;;17.92;88.61;99062.84;2023241;80;20199;-79
2021/07/27 05:59:17;;;;;;;4.61;3.53;;;;;;;17.93;88.57;99068.94;2025551;80;20209;-79
2021/07/27 06:02:21;;;;;;;9.52;4.10;;;;;;;17.88;88.59;99070.91;2021066;77;22809;-81
2021/07/27 06:05:24;;;;;;;4.15;3.70;;;;;;;17.82;88.77;99077.28;2024360;80;20268;-80
2021/07/27 06:08:26;;;;;;;4.76;3.38;;;;;;;17.81;89.10;99079.03;2022836;80;20192;-80
2021/07/27 06:11:30;;;;;;;6.49;3.92;;;;;;;17.84;89.20;99083.31;2025065;80;20184;-81
2021/07/27 06:14:32;;;;;;;4.79;3.65;;;;;;;17.83;89.20;99083.38;2025879;80;20253;-81
2021/07/27 06:17:35;;;;;;;4.64;3.99;;;;;;;17.83;88.47;99088.63;2019935;77;21978;-79
2021/07/27 06:20:41;;;;;;;4.38;3.99;;;;;;;17.88;88.07;99074.41;2022794;80;20197;-80
2021/07/27 06:23:47;;;;;;;4.16;3.55;;;;;;;17.95;88.34;99075.84;2022739;80;20372;-80
2021/07/27 06:26:50;;;;;;;4.43;4.01;;;;;;;18.03;88.39;99075.56;2022362;80;20168;-80
2021/07/27 06:29:53;;;;;;;7.84;3.99;;;;;;;18.10;88.34;99074.38;2021424;80;20176;-79
2021/07/27 06:32:57;;;;;;;5.57;3.78;;;;;;;18.15;87.62;99077.72;2019240;77;23366;-79
2021/07/27 06:36:00;;;;;;;6.05;3.94;;;;;;;18.18;87.10;99082.84;2022383;80;20199;-79
2021/07/27 06:39:02;;;;;;;6.80;4.13;;;;;;;18.22;86.72;99073.06;2023722;80;20168;-80
2021/07/27 06:42:05;;;;;;;4.66;3.72;;;;;;;18.29;86.72;99067.47;2022263;80;20176;-79
2021/07/27 06:45:09;;;;;;;5.63;3.60;;;;;;;18.35;87.39;99069.88;2017050;80;20216;-79
2021/07/27 06:48:11;;;;;;;5.59;3.75;;;;;;;18.35;87.31;99072.50;2019479;77;22239;-81
2021/07/27 06:51:16;;;;;;;5.38;3.90;;;;;;;18.38;86.76;99075.00;2024823;80;20823;-80
2021/07/27 06:54:18;;;;;;;5.26;4.19;;;;;;;18.41;85.59;99077.50;2020056;80;20699;-80
2021/07/27 06:57:21;;;;;;;7.91;4.28;;;;;;;18.43;85.19;99080.91;2024483;80;20228;-80
2021/07/27 07:00:24;;;;;;;4.72;3.74;;;;;;;18.46;85.29;99085.19;2024311;77;24661;-80
2021/07/27 07:03:26;;;;;;;4.50;4.01;;;;;;;18.53;85.14;99086.66;2028699;80;20674;-79
2021/07/27 07:06:30;;;;;;;4.86;3.91;;;;;;;18.63;84.60;99087.16;2023366;80;20640;-79
2021/07/27 07:09:33;;;;;;;5.41;4.28;;;;;;;18.75;84.72;99083.16;2023846;80;20735;-78
2021/07/27 07:12:35;;;;;;;5.59;3.79;;;;;;;18.88;84.45;99079.94;2026293;80;20567;-80
2021/07/27 07:15:38;;;;;;;8.26;3.81;;;;;;;19.04;84.42;99090.66;2023548;77;21023;-79
2021/07/27 07:18:40;;;;;;;6.41;4.04;;;;;;;19.15;83.46;99100.69;2022595;80;20171;-79
2021/07/27 07:21:43;;;;;;;7.75;3.81;;;;;;;19.17;82.58;99093.59;2019724;80;20289;-79
2021/07/27 07:24:46;;;;;;;4.54;4.14;;;;;;;19.32;81.95;99098.19;2019926;80;20233;-79
2021/07/27 07:27:49;;;;;;;4.76;4.26;;;;;;;19.49;82.32;99092.16;2019469;80;20512;-79
2021/07/27 07:30:51;;;;;;;7.43;3.70;;;;;;;19.61;81.82;99100.38;2018949;80;20836;-78
2021/07/27 07:33:56;;;;;;;4.01;3.63;;;;;;;19.66;80.45;99104.59;2020400;80;20221;-76
2021/07/27 07:36:59;;;;;;;4.40;4.05;;;;;;;19.69;80.35;99100.03;2021259;80;20958;-77
2021/07/27 07:40:01;;;;;;;6.13;3.88;;;;;;;19.70;79.67;99108.78;2019533;80;20245;-78
2021/07/27 07:43:04;;;;;;;5.63;3.91;;;;;;;19.72;79.35;99110.41;2021202;80;20300;-73
2021/07/27 07:46:06;;;;;;;4.49;3.59;;;;;;;19.73;80.00;99100.72;2021063;77;20785;-80
2021/07/27 07:49:09;;;;;;;4.47;4.07;;;;;;;19.79;80.56;99101.31;2025698;80;20275;-77
2021/07/27 07:52:13;;;;;;;4.24;3.75;;;;;;;19.88;80.48;99095.59;2024640;80;20939;-81
2021/07/27 07:55:16;;;;;;;6.25;3.59;;;;;;;19.98;80.38;99089.91;2024841;80;20923;-78
2021/07/27 07:58:18;;;;;;;4.39;3.99;;;;;;;20.09;80.48;99087.59;2024671;80;20183;-81
2021/07/27 08:01:21;;;;;;;4.90;4.34;;;;;;;20.17;79.45;99088.97;2026539;77;20862;-78
2021/07/27 08:04:25;;;;;;;5.59;3.91;;;;;;;20.26;78.20;99089.44;2021338;80;20308;-80
2021/07/27 08:07:27;;;;;;;5.59;4.44;;;;;;;20.34;77.90;99093.41;2020124;80;20168;-80
2021/07/27 08:10:34;;;;;;;5.32;4.47;;;;;;;20.41;77.44;99092.19;2022897;80;20255;-80
2021/07/27 08:13:37;;;;;;;5.57;4.21;;;;;;;20.50;77.01;99093.53;2022434;80;20167;-79
2021/07/27 08:16:40;;;;;;;4.80;4.30;;;;;;;20.66;77.08;99102.41;2030209;80;25140;-83
2021/07/27 08:19:42;;;;;;;4.59;4.19;;;;;;;20.73;76.01;99100.31;2031271;80;20199;-79
2021/07/27 08:22:45;;;;;;;4.46;4.01;;;;;;;20.84;75.96;99105.06;2027089;80;20179;-79
2021/07/27 08:25:47;;;;;;;4.60;4.10;;;;;;;21.01;75.44;99091.84;2026726;80;20239;-78
2021/07/27 08:28:50;;;;;;;5.07;4.57;;;;;;;21.40;74.94;99097.69;2023622;80;20188;-79
2021/07/27 08:31:53;;;;;;;4.90;3.83;;;;;;;21.80;73.86;99092.91;2019104;77;29827;-79
2021/07/27 08:34:55;;;;;;;5.04;4.31;;;;;;;22.19;72.77;99099.56;2020629;80;20220;-80
2021/07/27 08:37:58;;;;;;;4.35;3.90;;;;;;;22.54;70.45;99103.69;2024476;80;20185;-81
2021/07/27 08:41:02;;;;;;;5.57;3.76;;;;;;;22.72;68.96;99101.78;2027508;80;20192;-82
2021/07/27 08:44:17;;;;;;;4.14;3.79;;;;;;;22.90;67.53;99106.00;2026784;80;20199;-82
2021/07/27 08:47:21;;;;;;;4.11;3.72;;;;;;;22.83;66.91;99098.53;2030977;77;21261;-82
2021/07/27 08:50:26;;;;;;;3.80;3.50;;;;;;;22.55;66.75;99100.09;2033914;80;20171;-81
2021/07/27 08:53:28;;;;;;;4.50;3.85;;;;;;;22.44;68.42;99102.53;2033630;80;20221;-81
2021/07/27 08:56:31;;;;;;;4.76;3.92;;;;;;;22.28;69.26;99101.72;2035628;80;20179;-81
2021/07/27 08:59:35;;;;;;;4.64;4.28;;;;;;;22.14;69.40;99101.63;2034142;80;20171;-81
2021/07/27 09:02:38;;;;;;;4.66;4.18;;;;;;;22.05;69.41;99104.78;2033006;78;20209;-82
2021/07/27 09:05:40;;;;;;;4.03;3.70;;;;;;;22.04;70.64;99103.88;2035343;80;20167;-81
2021/07/27 09:08:43;;;;;;;4.16;3.81;;;;;;;22.09;71.46;99111.63;2033793;80;20218;-83
2021/07/27 09:11:47;;;;;;;8.71;4.47;;;;;;;22.13;71.41;99107.88;2035134;80;20190;-83
2021/07/27 09:14:52;;;;;;;4.65;3.78;;;;;;;22.02;69.60;99109.28;2035528;80;20196;-84
2021/07/27 09:17:59;;;;;;;5.04;4.24;;;;;;;21.98;71.09;99106.88;2031146;77;21423;-83
2021/07/27 09:21:02;;;;;;;9.51;4.03;;;;;;;22.00;70.43;99110.28;2028718;80;20176;-83
2021/07/27 09:24:05;;;;;;;5.00;4.32;;;;;;;21.96;69.83;99108.75;2029729;80;20192;-83
2021/07/27 09:27:27;;;;;;;5.11;4.35;;;;;;;21.83;70.03;99111.22;2027762;80;20171;-84
2021/07/27 09:30:31;;;;;;;5.56;4.01;;;;;;;21.76;71.23;99115.16;2031034;77;21398;-83
2021/07/27 09:33:35;;;;;;;5.46;4.25;;;;;;;21.73;71.51;99120.59;2034954;80;20205;-83
2021/07/27 09:36:38;;;;;;;4.75;4.36;;;;;;;21.65;71.38;99120.16;2040582;80;20193;-83
2021/07/27 09:39:40;;;;;;;7.50;4.78;;;;;;;21.59;72.40;99116.06;2036522;80;20163;-83
2021/07/27 09:42:43;;;;;;;5.34;4.89;;;;;;;21.57;72.40;99112.66;2031046;80;20163;-81
2021/07/27 09:45:49;;;;;;;5.49;4.93;;;;;;;21.57;71.85;99106.50;2027217;77;22281;-78
2021/07/27 09:48:52;;;;;;;4.68;4.18;;;;;;;21.71;72.15;99114.53;2019953;80;21078;-80
2021/07/27 09:51:59;;;;;;;5.11;4.54;;;;;;;21.99;72.15;99111.25;2023746;80;20167;-80
2021/07/27 09:55:01;;;;;;;4.84;4.39;;;;;;;22.26;71.95;99112.38;2022264;80;20205;-80
2021/07/27 09:58:05;;;;;;;5.20;3.80;;;;;;;22.35;70.51;99115.44;2021010;80;20172;-83
2021/07/27 10:01:13;;;;;;;4.95;4.55;;;;;;;22.38;70.86;99113.47;2020138;77;22077;-80
2021/07/27 10:04:22;;;;;;;6.61;4.66;;;;;;;22.36;69.67;99109.19;2026846;80;20211;-79
2021/07/27 10:07:29;;;;;;;4.99;4.10;;;;;;;22.36;70.29;99101.25;2024308;80;20565;-79
2021/07/27 10:10:35;;;;;;;6.79;4.20;;;;;;;22.35;70.83;99107.50;2024711;80;20697;-78
2021/07/27 10:13:40;;;;;;;4.57;4.15;;;;;;;22.34;70.30;99114.56;2029263;80;20171;-79
2021/07/27 10:16:44;;;;;;;7.18;4.11;;;;;;;22.43;69.85;99108.75;2022616;77;20500;-79
2021/07/27 10:19:52;;;;;;;4.25;3.95;;;;;;;22.66;69.99;99112.72;2019960;80;20191;-79
2021/07/27 10:22:55;;;;;;;5.53;4.40;;;;;;;22.85;69.18;99107.25;2018034;80;20885;-79
2021/07/27 10:25:58;;;;;;;7.19;4.45;;;;;;;22.94;68.75;99109.31;2020669;80;20194;-83
2021/07/27 10:29:01;;;;;;;6.66;4.20;;;;;;;23.01;68.01;99107.19;2028753;80;20240;-84
2021/07/27 10:35:31;;;;;;;7.41;4.10;;;;;;;22.94;68.86;99106.69;2036348;69;20320;-82
2021/07/27 10:38:36;;;;;;;4.49;4.10;;;;;;;23.02;67.52;99108.88;2025907;80;20184;-83
2021/07/27 10:41:47;;;;;;;5.88;4.03;;;;;;;22.92;66.08;99097.97;2020974;80;20176;-79
2021/07/27 10:44:51;;;;;;;6.19;4.32;;;;;;;22.98;67.00;99102.03;2018175;80;20199;-78
2021/07/27 10:47:54;;;;;;;5.35;4.44;;;;;;;23.04;67.43;99099.06;2017851;77;20425;-78
2021/07/27 10:50:58;;;;;;;5.66;4.57;;;;;;;23.16;66.80;99091.22;2018642;80;20239;-78
2021/07/27 10:54:01;;;;;;;4.90;4.29;;;;;;;23.39;65.96;99087.16;2018123;80;20217;-77
2021/07/27 10:57:06;;;;;;;5.25;3.74;;;;;;;23.59;65.96;99090.41;2018606;80;20213;-79
2021/07/27 11:00:09;;;;;;;4.00;3.60;;;;;;;23.75;66.00;99099.94;2018061;80;20646;-78
2021/07/27 11:03:12;;;;;;;5.04;4.26;;;;;;;23.92;64.75;99093.59;2022016;80;23803;-77
2021/07/27 11:06:19;;;;;;;4.55;3.90;;;;;;;23.95;64.72;99085.44;2025257;80;20179;-78
2021/07/27 11:09:22;;;;;;;4.45;3.86;;;;;;;23.99;63.85;99084.28;2023502;80;20870;-79
2021/07/27 11:12:40;;;;;;;5.35;4.00;;;;;;;24.03;63.99;99074.31;2020752;80;20199;-78
2021/07/27 11:15:43;;;;;;;5.18;3.72;;;;;;;24.19;63.59;99067.06;2026851;80;20179;-80
2021/07/27 11:18:47;;;;;;;5.09;3.61;;;;;;;24.69;62.41;99065.53;2027453;80;20228;-80
2021/07/27 11:21:50;;;;;;;5.13;3.80;;;;;;;25.29;61.72;99068.47;2028303;80;20187;-82
2021/07/27 11:24:56;;;;;;;4.11;3.71;;;;;;;25.54;59.27;99069.41;2027622;80;20883;-80
2021/07/27 11:28:09;;;;;;;4.13;3.15;;;;;;;25.60;58.14;99058.34;2028138;80;20163;-81
2021/07/27 11:31:19;;;;;;;8.99;4.35;;;;;;;25.63;58.06;99065.25;2024791;77;22745;-79
2021/07/27 11:34:27;;;;;;;4.86;3.22;;;;;;;25.82;58.20;99061.19;2020764;80;20192;-80
2021/07/27 11:37:29;;;;;;;4.00;3.56;;;;;;;25.97;58.16;99061.03;2020806;80;20197;-80
2021/07/27 11:40:33;;;;;;;3.81;3.51;;;;;;;26.13;57.14;99048.31;2023208;80;20240;-80
2021/07/27 11:43:41;;;;;;;5.24;3.41;;;;;;;26.22;56.32;99050.31;2021873;80;20168;-80
2021/07/27 11:46:51;;;;;;;4.31;3.78;;;;;;;26.32;56.23;99039.81;2023740;80;20167;-80
2021/07/27 11:49:56;;;;;;;3.83;3.50;;;;;;;26.53;55.32;99026.72;2021441;80;20176;-80
2021/07/27 11:53:03;;;;;;;6.50;3.86;;;;;;;26.44;54.04;99029.13;2020095;80;20793;-81
2021/07/27 11:56:17;;;;;;;4.59;3.95;;;;;;;26.54;55.19;99031.06;2019815;80;20211;-80
2021/07/27 11:59:25;;;;;;;4.50;4.10;;;;;;;26.42;52.82;99039.03;2023930;80;20797;-80
2021/07/27 12:02:27;;;;;;;5.24;4.15;;;;;;;26.24;52.99;99027.09;2023754;80;23630;-80
2021/07/27 12:05:31;;;;;;;5.47;3.56;;;;;;;25.98;53.09;99033.47;2024947;80;20340;-80
2021/07/27 12:08:34;;;;;;;5.36;3.88;;;;;;;25.79;53.86;99024.16;2025108;80;20179;-80
2021/07/27 12:11:37;;;;;;;4.76;3.65;;;;;;;25.55;54.39;99013.47;2024178;80;20186;-80
2021/07/27 12:14:39;;;;;;;6.18;3.92;;;;;;;25.53;55.80;99010.06;2024536;80;20656;-77
2021/07/27 12:17:42;;;;;;;4.68;4.28;;;;;;;25.47;56.50;99007.00;2017380;77;20759;-75
2021/07/27 12:20:45;;;;;;;6.85;3.94;;;;;;;25.22;54.52;99002.59;2020154;80;20214;-78
2021/07/27 12:23:47;;;;;;;4.71;3.91;;;;;;;25.09;55.71;98999.06;2018423;80;20183;-78
2021/07/27 12:26:50;;;;;;;6.29;4.03;;;;;;;24.93;55.67;98994.78;2018423;80;20176;-78
2021/07/27 12:29:53;;;;;;;5.18;3.78;;;;;;;24.90;57.13;98991.50;2017989;80;20200;-78
2021/07/27 12:32:56;;;;;;;4.34;4.01;;;;;;;24.85;57.40;99002.47;2022057;80;22456;-78
2021/07/27 12:36:02;;;;;;;4.70;4.25;;;;;;;24.74;57.49;98999.69;2019658;80;20175;-78
2021/07/27 12:39:08;;;;;;;4.72;3.75;;;;;;;24.53;55.80;98998.50;2023932;80;20183;-78
2021/07/27 12:42:10;;;;;;;4.30;3.99;;;;;;;24.38;57.78;98995.91;2023067;80;20667;-80
2021/07/27 12:45:13;;;;;;;5.85;4.19;;;;;;;24.28;56.63;98996.63;2024239;80;20179;-80
2021/07/27 12:48:16;;;;;;;8.09;4.66;;;;;;;24.26;58.25;98996.72;2018815;78;22830;-79
2021/07/27 12:51:19;;;;;;;5.55;4.21;;;;;;;24.22;57.78;99002.31;2019974;80;20185;-79
2021/07/27 12:54:22;;;;;;;4.47;4.14;;;;;;;24.22;59.66;99007.63;2019682;80;20479;-79
2021/07/27 12:57:24;;;;;;;5.09;4.54;;;;;;;24.05;56.97;99011.41;2020068;80;20160;-79
2021/07/27 13:00:27;;;;;;;4.71;4.31;;;;;;;24.08;58.01;99011.22;2017400;77;49947;-79
2021/07/27 13:03:30;;;;;;;4.95;4.13;;;;;;;24.10;57.43;99014.63;2017924;80;20282;-76
2021/07/27 13:06:34;;;;;;;5.93;3.90;;;;;;;24.03;55.38;99010.66;2017029;80;20232;-76
2021/07/27 13:09:37;;;;;;;6.14;4.20;;;;;;;24.02;57.12;99006.28;2017997;80;20196;-80
2021/07/27 13:12:40;;;;;;;4.70;3.74;;;;;;;24.11;57.90;98998.59;2017962;80;20180;-80
2021/07/27 13:15:43;;;;;;;5.13;4.63;;;;;;;24.16;55.69;99008.03;2018412;77;41876;-78
2021/07/27 13:18:47;;;;;;;5.45;4.32;;;;;;;24.18;57.74;99003.47;2022840;80;20849;-78
2021/07/27 13:21:52;;;;;;;4.11;3.78;;;;;;;24.26;58.93;99007.34;2022072;80;20649;-78
2021/07/27 13:24:55;;;;;;;4.18;3.88;;;;;;;24.27;57.72;98995.78;2023023;80;20175;-78
2021/07/27 13:27:58;;;;;;;5.40;4.10;;;;;;;24.33;58.91;98983.91;2022719;80;20886;-78
2021/07/27 13:31:00;;;;;;;3.81;3.38;;;;;;;24.29;57.30;98983.28;2020688;77;25008;-78
2021/07/27 13:34:03;;;;;;;4.44;3.29;;;;;;;24.17;57.74;98985.88;2016850;80;20197;-77
2021/07/27 13:37:07;;;;;;;2.78;2.58;;;;;;;23.90;59.05;98985.91;2017713;80;20187;-77
2021/07/27 13:40:10;;;;;;;3.58;2.50;;;;;;;23.67;58.87;98988.22;2017980;80;20163;-78
2021/07/27 13:43:13;;;;;;;3.24;2.29;;;;;;;23.37;59.09;98993.66;2021608;80;20167;-78
2021/07/27 13:46:15;;;;;;;2.42;2.22;;;;;;;23.03;58.28;98984.31;2019789;77;25707;-78
2021/07/27 13:49:18;;;;;;;3.79;2.33;;;;;;;22.82;60.97;98981.19;2023346;80;20313;-78
2021/07/27 13:52:21;;;;;;;3.21;2.35;;;;;;;22.59;62.17;98989.63;2023013;80;20258;-78
2021/07/27 13:55:24;;;;;;;2.84;2.00;;;;;;;22.37;63.66;98999.78;2022419;80;20227;-78
2021/07/27 13:58:26;;;;;;;3.30;1.88;;;;;;;22.19;65.01;98997.28;2023345;80;20163;-79
2021/07/27 14:01:29;;;;;;;4.20;2.22;;;;;;;22.11;64.44;98985.44;2019778;80;20275;-78
2021/07/27 14:04:32;;;;;;;2.45;1.65;;;;;;;22.08;64.02;98978.53;2016755;80;20221;-78
2021/07/27 14:07:35;;;;;;;4.89;2.04;;;;;;;22.05;62.14;98964.63;2017932;80;20974;-78
2021/07/27 14:10:38;;;;;;;3.55;2.00;;;;;;;22.09;62.85;98958.25;2017243;80;20221;-78
2021/07/27 14:13:40;;;;;;;3.55;1.91;;;;;;;22.06;63.69;98983.03;2018241;80;20203;-78
2021/07/27 14:16:43;;;;;;;3.74;2.28;;;;;;;22.04;63.77;98979.63;2020834;77;21033;-78
2021/07/27 14:19:46;;;;;;;3.00;2.03;;;;;;;22.06;64.75;98969.81;2023343;80;20183;-79
2021/07/27 14:22:51;;;;;;;2.66;2.14;;;;;;;21.99;62.85;98976.38;2023828;80;20511;-78
2021/07/27 14:25:53;;;;;;;2.83;2.00;;;;;;;21.79;63.77;98984.63;2023653;80;20633;-76
2021/07/27 14:28:56;;;;;;;2.26;2.06;;;;;;;21.61;66.55;98995.28;2023266;80;20298;-76
2021/07/27 14:31:59;;;;;;;2.11;2.01;;;;;;;21.42;67.21;98992.81;2019223;77;20682;-76
2021/07/27 14:35:02;;;;;;;5.43;2.92;;;;;;;21.29;69.53;98978.56;2017545;80;20363;-75
2021/07/27 14:38:05;;;;;;;2.30;2.10;;;;;;;21.32;68.86;98962.53;2017991;80;20183;-76
2021/07/27 14:41:09;;;;;;;2.61;2.31;;;;;;;21.42;69.65;98974.31;2018311;80;20185;-76
2021/07/27 14:44:12;;;;;;;2.42;2.01;;;;;;;21.50;69.40;98975.66;2017665;80;20179;-77
2021/07/27 14:47:15;;;;;;;4.81;2.38;;;;;;;21.49;69.97;98971.31;2021410;78;20638;-76
2021/07/27 14:50:17;;;;;;;6.20;2.54;;;;;;;21.50;70.14;98980.94;2022715;80;20450;-76